Loganville, Pennsylvania
Current Conditions -  °F | °C
As of 11:53 AM on Thursday 30 Oct 2014 (Local Time) from KTHV Reporting Station
Few Clouds Few Clouds  
Wind Chill: 55°   Ceiling: Unl
Heat Index: 55°   Visibility: 10mi
Dew Point: 40°   Wind: 7mph
Humidity: 57%   Direction: 10°N
Pressure: 30.05"   Gusts: NA
Location:  39.86°N, 76.71°W
Report Text: KTHV 301553Z AUTO 01006KT 10SM FEW034 13/04 A3005 RMK AO2 SLP182 T01280044
Loading
Personal Weather Stations






























Interactive Weather Map
Tropical Storm Tracking
New forecast layout! Learn more

10-Day Weather Forecast

Advertisements
Track Severe Weather on mobile